Time;durP1;ratioP1;P1;durP2;ratioP2;P2;SDS_P1;SDS_P2;PMS_P1;PMS_P2;Temp;Humidity;BMP_temperature;BMP_pressure;BME280_temperature;BME280_humidity;BME280_pressure;Samples;Min_cycle;Max_cycle;Signal;HPM_P1;HPM_P2
2021/03/30 00:01:50;;;;;;;0.50;0.45;;;18.80;58.50;;;;;;5135657;27;20031;-39
2021/03/30 00:04:16;;;;;;;0.60;0.60;;;18.80;58.40;;;;;;5104878;28;20022;-38
2021/03/30 00:06:42;;;;;;;1.17;0.75;;;18.80;58.30;;;;;;5143217;27;20086;-39
2021/03/30 00:09:09;;;;;;;0.60;0.60;;;18.80;58.50;;;;;;5143312;27;20050;-39
2021/03/30 00:11:36;;;;;;;0.90;0.60;;;18.80;58.50;;;;;;5130769;27;20093;-39
2021/03/30 00:14:03;;;;;;;0.73;0.70;;;18.80;58.50;;;;;;5105113;28;20027;-39
2021/03/30 00:16:29;;;;;;;0.82;0.47;;;18.70;58.60;;;;;;5123275;28;20028;-39
2021/03/30 00:18:55;;;;;;;0.82;0.80;;;18.70;58.50;;;;;;5123076;28;20027;-39
2021/03/30 00:21:21;;;;;;;0.63;0.60;;;18.70;58.40;;;;;;5122563;28;20520;-39
2021/03/30 00:23:47;;;;;;;0.80;0.80;;;18.70;58.20;;;;;;5106382;28;20039;-39
2021/03/30 00:26:13;;;;;;;0.70;0.70;;;18.70;58.10;;;;;;5102776;28;20817;-39
2021/03/30 00:28:39;;;;;;;0.70;0.60;;;18.70;57.90;;;;;;5102732;28;20035;-38
2021/03/30 00:31:06;;;;;;;1.02;0.80;;;18.70;58.00;;;;;;5105937;28;20072;-39
2021/03/30 00:33:32;;;;;;;0.82;0.70;;;18.70;58.10;;;;;;5143553;28;20035;-38
2021/03/30 00:35:58;;;;;;;0.60;0.60;;;18.70;58.20;;;;;;5129478;28;20035;-39
2021/03/30 00:38:24;;;;;;;0.70;0.70;;;18.70;58.30;;;;;;5122950;28;20028;-39
2021/03/30 00:40:52;;;;;;;0.73;0.70;;;18.60;58.20;;;;;;5122569;28;20047;-39
2021/03/30 00:43:19;;;;;;;0.90;0.80;;;18.60;58.20;;;;;;5122874;28;20036;-39
2021/03/30 00:45:45;;;;;;;0.93;0.90;;;18.60;58.40;;;;;;5104248;28;20023;-39
2021/03/30 00:48:27;;;;;;;0.95;0.55;;;18.60;58.30;;;;;;5122784;28;20095;-39
2021/03/30 00:50:54;;;;;;;0.82;0.63;;;18.60;58.50;;;;;;5104075;28;20027;-38
2021/03/30 00:53:20;;;;;;;0.60;0.60;;;18.60;58.20;;;;;;5104412;28;20507;-39
2021/03/30 00:55:46;;;;;;;0.67;0.67;;;18.60;58.50;;;;;;5104461;28;20061;-39
2021/03/30 00:58:13;;;;;;;0.90;0.73;;;18.60;58.30;;;;;;5111730;28;20030;-39
2021/03/30 01:00:39;;;;;;;1.10;0.70;;;18.50;58.20;;;;;;5140981;28;20019;-39
2021/03/30 01:03:05;;;;;;;1.85;1.00;;;18.50;58.20;;;;;;5142370;28;20023;-39
2021/03/30 01:05:31;;;;;;;0.88;0.80;;;18.50;58.30;;;;;;5132837;28;20051;-39
2021/03/30 01:08:19;;;;;;;1.35;0.77;;;18.50;58.20;;;;;;5122614;28;20036;-39
2021/03/30 01:10:56;;;;;;;0.60;0.60;;;18.50;58.30;;;;;;5103804;28;20035;-39
2021/03/30 01:13:34;;;;;;;0.98;0.90;;;18.50;58.30;;;;;;5122470;28;20035;-39
2021/03/30 01:16:14;;;;;;;0.73;0.68;;;18.50;58.30;;;;;;5122484;27;20051;-39
2021/03/30 01:19:09;;;;;;;1.15;0.80;;;18.50;58.50;;;;;;5104222;28;20024;-39
2021/03/30 01:21:56;;;;;;;0.50;0.50;;;18.50;58.40;;;;;;5122951;28;20092;-39
2021/03/30 01:24:30;;;;;;;0.70;0.70;;;18.40;58.50;;;;;;5105625;28;20024;-39
2021/03/30 01:26:58;;;;;;;0.75;0.60;;;18.40;58.50;;;;;;5087917;28;20032;-39
2021/03/30 01:30:01;;;;;;;0.60;0.60;;;18.40;58.50;;;;;;5087541;28;20028;-39
2021/03/30 01:32:38;;;;;;;0.80;0.70;;;18.40;58.50;;;;;;5129141;27;20043;-39
2021/03/30 01:35:09;;;;;;;0.98;0.82;;;18.30;58.50;;;;;;5105976;28;20027;-39
2021/03/30 01:37:40;;;;;;;0.90;0.80;;;18.30;58.50;;;;;;5107544;28;20036;-39
2021/03/30 01:40:07;;;;;;;1.08;0.70;;;18.30;58.50;;;;;;5107517;28;20027;-39
2021/03/30 01:42:33;;;;;;;1.10;0.93;;;18.30;58.70;;;;;;5107131;28;20046;-39
2021/03/30 01:45:00;;;;;;;0.50;0.45;;;18.30;58.70;;;;;;5107568;28;20703;-43
2021/03/30 01:47:27;;;;;;;0.95;0.80;;;18.30;58.60;;;;;;5125735;28;20029;-39
2021/03/30 01:49:53;;;;;;;1.63;0.73;;;18.30;58.50;;;;;;5107511;28;20028;-39
2021/03/30 01:52:19;;;;;;;0.80;0.70;;;18.30;58.60;;;;;;5102403;28;20066;-39
2021/03/30 01:54:47;;;;;;;1.20;0.73;;;18.20;58.50;;;;;;5087201;28;20035;-39
2021/03/30 01:57:13;;;;;;;1.35;0.70;;;18.20;58.60;;;;;;5087194;28;20035;-39
2021/03/30 01:59:41;;;;;;;0.93;0.80;;;18.20;58.50;;;;;;5086903;28;20032;-39
2021/03/30 02:02:08;;;;;;;0.75;0.75;;;18.20;58.70;;;;;;5107272;27;20031;-39
2021/03/30 02:04:34;;;;;;;1.00;0.82;;;18.20;58.60;;;;;;5125580;27;20027;-39
2021/03/30 02:07:00;;;;;;;0.93;0.82;;;18.10;58.60;;;;;;5106925;28;20027;-39
2021/03/30 02:09:32;;;;;;;1.05;0.75;;;18.10;58.70;;;;;;5103523;28;20040;-39
2021/03/30 02:12:07;;;;;;;1.25;1.00;;;18.10;58.70;;;;;;5087326;28;20067;-39
2021/03/30 02:14:33;;;;;;;1.55;0.95;;;18.10;58.90;;;;;;5103484;28;20045;-39
2021/03/30 02:17:27;;;;;;;1.48;0.90;;;18.10;58.80;;;;;;5103280;28;20141;-39
2021/03/30 02:20:11;;;;;;;1.10;0.98;;;18.10;59.00;;;;;;5069026;28;20032;-39
2021/03/30 02:22:51;;;;;;;1.05;0.95;;;18.10;59.00;;;;;;5104407;28;20012;-39
2021/03/30 02:25:18;;;;;;;2.08;1.08;;;18.10;58.90;;;;;;5104533;28;20110;-39
2021/03/30 02:27:44;;;;;;;0.70;0.70;;;18.00;58.90;;;;;;5103220;28;20481;-39
2021/03/30 02:30:12;;;;;;;1.20;1.10;;;18.00;59.00;;;;;;5103066;28;20032;-39
2021/03/30 02:32:39;;;;;;;1.60;1.23;;;18.00;59.00;;;;;;5087479;28;20108;-39
2021/03/30 02:35:06;;;;;;;0.93;0.90;;;18.00;59.00;;;;;;5089220;28;20024;-39
2021/03/30 02:37:33;;;;;;;0.88;0.82;;;18.00;59.10;;;;;;5102818;28;20036;-39
2021/03/30 02:39:59;;;;;;;1.40;1.00;;;18.00;59.10;;;;;;5103023;28;20024;-39
2021/03/30 02:42:26;;;;;;;1.10;1.00;;;17.90;59.10;;;;;;5104012;28;20036;-39
2021/03/30 02:44:52;;;;;;;0.82;0.77;;;17.90;59.10;;;;;;5104263;28;20024;-39
2021/03/30 02:47:19;;;;;;;1.95;1.23;;;17.90;59.00;;;;;;5102743;28;20040;-39
2021/03/30 02:49:45;;;;;;;1.10;1.00;;;17.90;59.10;;;;;;5102749;28;20048;-39
2021/03/30 02:52:12;;;;;;;0.95;0.90;;;17.90;59.20;;;;;;5099067;28;20048;-39
2021/03/30 02:54:38;;;;;;;;;;;17.80;59.10;;;;;;5094497;28;20024;-39
2021/03/30 02:57:05;;;;;;;1.30;1.10;;;17.80;59.10;;;;;;5119886;28;19915;-39
2021/03/30 02:59:32;;;;;;;1.10;0.82;;;17.80;59.30;;;;;;5122976;28;20023;-39
2021/03/30 03:01:58;;;;;;;1.00;0.90;;;17.80;59.30;;;;;;5113213;28;20040;-39
2021/03/30 03:04:26;;;;;;;0.88;0.85;;;17.70;59.30;;;;;;5103071;28;20662;-39
2021/03/30 03:06:52;;;;;;;1.27;1.08;;;17.70;59.40;;;;;;5123975;28;20039;-39
2021/03/30 03:09:19;;;;;;;0.93;0.90;;;17.70;59.40;;;;;;5105899;28;20059;-39
2021/03/30 03:11:45;;;;;;;1.15;1.05;;;17.70;59.50;;;;;;5105818;28;20044;-39
2021/03/30 03:14:12;;;;;;;1.38;0.68;;;17.70;59.40;;;;;;5122563;28;20038;-39
2021/03/30 03:16:38;;;;;;;1.27;0.95;;;17.70;59.50;;;;;;5122478;28;20104;-39
2021/03/30 03:19:08;;;;;;;1.60;1.13;;;17.70;59.60;;;;;;5123983;28;20053;-39
2021/03/30 03:21:34;;;;;;;1.50;1.13;;;17.60;59.60;;;;;;5111659;28;20030;-39
2021/03/30 03:24:02;;;;;;;1.05;0.95;;;17.60;59.60;;;;;;5105776;28;20035;-39
2021/03/30 03:26:29;;;;;;;1.00;0.90;;;17.60;59.70;;;;;;5106352;28;20059;-39
2021/03/30 03:28:56;;;;;;;1.02;0.80;;;17.60;59.60;;;;;;5101930;28;20079;-39
2021/03/30 03:31:27;;;;;;;1.30;1.20;;;17.60;59.60;;;;;;5103064;28;20028;-39
2021/03/30 03:33:53;;;;;;;1.45;1.08;;;17.60;59.80;;;;;;5103149;28;20050;-39
2021/03/30 03:36:19;;;;;;;1.05;0.73;;;17.60;59.80;;;;;;5085004;28;20063;-39
2021/03/30 03:38:46;;;;;;;1.10;1.00;;;17.50;59.70;;;;;;5083006;28;20029;-39
2021/03/30 03:41:13;;;;;;;1.10;0.80;;;17.50;59.80;;;;;;5082742;28;20127;-39
2021/03/30 03:43:40;;;;;;;1.30;0.82;;;17.50;59.80;;;;;;5082332;28;20021;-39
2021/03/30 03:46:06;;;;;;;1.25;1.10;;;17.50;60.00;;;;;;5082683;28;20314;-39
2021/03/30 03:48:32;;;;;;;1.40;1.05;;;17.50;59.90;;;;;;5082832;28;20025;-39
2021/03/30 03:51:01;;;;;;;1.08;0.90;;;17.40;59.90;;;;;;5082587;28;20708;-39
2021/03/30 03:53:28;;;;;;;1.60;0.95;;;17.40;59.80;;;;;;5096185;28;20039;-39
2021/03/30 03:55:55;;;;;;;0.95;0.93;;;17.40;60.10;;;;;;5101869;28;20043;-39
2021/03/30 03:58:23;;;;;;;1.10;1.00;;;17.40;60.10;;;;;;5103085;28;20059;-39
2021/03/30 04:00:50;;;;;;;1.13;0.90;;;17.40;60.00;;;;;;5101449;28;20027;-39
2021/03/30 04:03:24;;;;;;;1.15;0.90;;;17.30;60.00;;;;;;5121267;28;20019;-39
2021/03/30 04:06:09;;;;;;;1.10;1.00;;;17.30;60.10;;;;;;5108818;28;20028;-39
2021/03/30 04:08:35;;;;;;;1.67;0.90;;;17.40;60.20;;;;;;5115726;28;20062;-39
2021/03/30 04:11:03;;;;;;;1.30;1.10;;;17.30;60.10;;;;;;5104745;28;20049;-39
2021/03/30 04:13:31;;;;;;;1.10;1.00;;;17.30;60.30;;;;;;5122670;28;20347;-39
2021/03/30 04:16:02;;;;;;;1.13;1.02;;;17.30;60.30;;;;;;5088356;28;20026;-39
2021/03/30 04:18:28;;;;;;;0.98;0.90;;;17.30;60.10;;;;;;5122932;28;20035;-39
2021/03/30 04:20:55;;;;;;;1.20;1.10;;;17.20;60.40;;;;;;5122985;28;20020;-39
2021/03/30 04:23:24;;;;;;;1.20;1.10;;;17.20;60.50;;;;;;5117495;28;20023;-39
2021/03/30 04:25:51;;;;;;;1.27;1.17;;;17.20;60.30;;;;;;5143270;28;20057;-39
2021/03/30 04:28:17;;;;;;;1.42;1.27;;;17.20;60.30;;;;;;5125127;28;20096;-39
2021/03/30 04:30:44;;;;;;;1.00;0.90;;;17.20;60.20;;;;;;5143483;28;20016;-39
2021/03/30 04:33:10;;;;;;;1.58;1.15;;;17.10;60.50;;;;;;5123757;28;20485;-39
2021/03/30 04:35:36;;;;;;;1.13;0.90;;;17.10;60.40;;;;;;5111051;28;20062;-39
2021/03/30 04:38:03;;;;;;;1.02;1.00;;;17.10;60.70;;;;;;5102587;28;20469;-39
2021/03/30 04:40:29;;;;;;;1.00;0.90;;;17.10;60.50;;;;;;5102420;28;20028;-39
2021/03/30 04:42:55;;;;;;;1.42;1.33;;;17.10;61.00;;;;;;5102523;28;20055;-39
2021/03/30 04:45:21;;;;;;;1.30;1.08;;;17.10;60.70;;;;;;5102021;28;20020;-39
2021/03/30 04:47:47;;;;;;;1.10;1.00;;;17.10;60.90;;;;;;5102352;28;20501;-39
2021/03/30 04:50:14;;;;;;;1.65;1.10;;;17.00;60.90;;;;;;5110277;28;20030;-39
2021/03/30 04:52:40;;;;;;;1.38;1.17;;;17.00;60.90;;;;;;5122663;28;20035;-39
2021/03/30 04:55:07;;;;;;;1.80;1.25;;;17.00;60.90;;;;;;5122245;28;20023;-39
2021/03/30 04:57:33;;;;;;;1.58;1.10;;;16.90;61.30;;;;;;5140684;27;20046;-39
2021/03/30 04:59:59;;;;;;;1.30;1.20;;;16.90;61.50;;;;;;5163198;27;20466;-39
2021/03/30 05:02:25;;;;;;;1.42;1.27;;;16.90;61.10;;;;;;5133918;27;20081;-39
2021/03/30 05:04:51;;;;;;;1.15;1.05;;;16.90;61.50;;;;;;5131184;27;20031;-38
2021/03/30 05:07:18;;;;;;;1.67;0.98;;;16.80;61.40;;;;;;5128122;27;20027;-39
2021/03/30 05:09:44;;;;;;;1.40;1.20;;;16.90;61.40;;;;;;5147050;27;20027;-39
2021/03/30 05:12:10;;;;;;;1.77;1.15;;;16.90;61.60;;;;;;5146491;27;20042;-39
2021/03/30 05:14:37;;;;;;;1.80;1.40;;;16.80;61.50;;;;;;5125805;28;20015;-39
2021/03/30 05:17:03;;;;;;;1.25;1.15;;;16.80;61.50;;;;;;5126118;28;20276;-39
2021/03/30 05:19:29;;;;;;;1.75;1.15;;;16.80;61.60;;;;;;5126237;28;20384;-39
2021/03/30 05:21:55;;;;;;;1.20;1.10;;;16.80;61.80;;;;;;5108376;27;20024;-39
2021/03/30 05:24:21;;;;;;;1.40;1.30;;;16.80;61.80;;;;;;5146925;27;20034;-39
2021/03/30 05:26:47;;;;;;;1.90;1.15;;;16.70;61.80;;;;;;5146526;27;20035;-38
2021/03/30 05:29:14;;;;;;;1.30;1.20;;;16.70;61.70;;;;;;5145824;27;20110;-39
2021/03/30 05:31:40;;;;;;;1.50;1.27;;;16.70;61.60;;;;;;5118780;28;20023;-39
2021/03/30 05:34:06;;;;;;;1.58;1.25;;;16.70;61.60;;;;;;5107640;28;20030;-39
2021/03/30 05:36:32;;;;;;;1.60;1.27;;;16.70;61.60;;;;;;5106709;28;20074;-39
2021/03/30 05:38:58;;;;;;;1.67;1.23;;;16.70;61.70;;;;;;5087399;28;20616;-39
2021/03/30 05:41:25;;;;;;;2.20;1.50;;;16.70;61.70;;;;;;5105379;28;20149;-39
2021/03/30 05:43:51;;;;;;;1.40;1.30;;;16.70;61.80;;;;;;5105466;28;20036;-39
2021/03/30 05:46:18;;;;;;;1.95;1.35;;;16.70;61.90;;;;;;5086638;28;20031;-39
2021/03/30 05:48:46;;;;;;;1.50;1.20;;;16.60;61.80;;;;;;5120261;28;20089;-39
2021/03/30 05:51:13;;;;;;;1.65;1.17;;;16.60;61.90;;;;;;5125493;28;20023;-39
2021/03/30 05:53:39;;;;;;;2.08;1.55;;;16.60;62.00;;;;;;5125728;28;20036;-39
2021/03/30 05:56:06;;;;;;;1.80;1.30;;;16.60;62.10;;;;;;5107296;28;20089;-39
2021/03/30 05:58:33;;;;;;;2.85;1.48;;;16.50;62.10;;;;;;5125560;28;20035;-39
2021/03/30 06:01:04;;;;;;;1.75;1.52;;;16.50;62.10;;;;;;5108384;27;20027;-39
2021/03/30 06:03:32;;;;;;;3.40;1.70;;;16.50;62.20;;;;;;5146157;27;20027;-39
2021/03/30 06:06:01;;;;;;;1.65;1.38;;;16.50;62.30;;;;;;5131712;27;20034;-39
2021/03/30 06:08:29;;;;;;;1.80;1.60;;;16.50;62.20;;;;;;5106896;28;20050;-39
2021/03/30 06:11:05;;;;;;;1.60;1.50;;;16.40;62.30;;;;;;5125010;28;20110;-39
2021/03/30 06:13:54;;;;;;;1.58;1.48;;;16.40;62.40;;;;;;5108110;28;20031;-39
2021/03/30 06:16:24;;;;;;;1.40;1.30;;;16.40;62.30;;;;;;5124913;28;20074;-39
2021/03/30 06:19:13;;;;;;;2.13;1.73;;;16.40;62.40;;;;;;5125017;28;20038;-39
2021/03/30 06:21:42;;;;;;;;;;;16.40;62.40;;;;;;5125286;28;20027;-39
2021/03/30 06:24:20;;;;;;;1.63;1.33;;;16.30;62.30;;;;;;5131501;27;19919;-39
2021/03/30 06:26:50;;;;;;;2.20;1.52;;;16.30;62.40;;;;;;5124765;28;20028;-39
2021/03/30 06:29:34;;;;;;;2.22;1.38;;;16.30;62.30;;;;;;5107276;28;20072;-39
2021/03/30 06:32:02;;;;;;;1.88;1.45;;;16.30;62.50;;;;;;5124594;28;20040;-39
2021/03/30 06:34:29;;;;;;;1.60;1.42;;;16.30;62.30;;;;;;5105468;28;20118;-39
2021/03/30 06:36:55;;;;;;;1.55;1.45;;;16.30;62.30;;;;;;5104007;28;20017;-39
2021/03/30 06:39:38;;;;;;;1.60;1.40;;;16.30;62.30;;;;;;5104255;28;20028;-39
2021/03/30 06:42:19;;;;;;;2.42;1.63;;;16.30;62.40;;;;;;5104454;28;20036;-39
2021/03/30 06:44:45;;;;;;;1.60;1.50;;;16.30;62.50;;;;;;5087872;28;20721;-39
2021/03/30 06:47:14;;;;;;;1.77;1.60;;;16.20;62.50;;;;;;5086143;27;20032;-39
2021/03/30 06:49:55;;;;;;;2.08;1.70;;;16.20;62.60;;;;;;5127575;27;20023;-39
2021/03/30 06:52:26;;;;;;;1.77;1.50;;;16.20;62.60;;;;;;5140280;27;20091;-39
2021/03/30 06:54:57;;;;;;;1.63;1.40;;;16.20;62.70;;;;;;5124415;28;20040;-39
2021/03/30 06:57:44;;;;;;;1.70;1.60;;;16.10;62.40;;;;;;5123997;28;20027;-39
2021/03/30 07:00:33;;;;;;;2.28;1.75;;;16.10;62.60;;;;;;5124089;28;20042;-39
2021/03/30 07:03:08;;;;;;;;;;;16.10;62.60;;;;;;5142745;27;20106;-39
2021/03/30 07:05:39;;;;;;;1.73;1.30;;;16.10;62.70;;;;;;5128432;27;19908;-39
2021/03/30 07:08:09;;;;;;;2.53;1.50;;;16.10;62.80;;;;;;5121724;28;20048;-39
2021/03/30 07:10:37;;;;;;;1.90;1.52;;;16.00;62.70;;;;;;5124055;28;20036;-39
2021/03/30 07:13:05;;;;;;;2.30;1.30;;;16.00;62.80;;;;;;5124263;28;20028;-39
2021/03/30 07:15:33;;;;;;;1.90;1.60;;;16.00;62.90;;;;;;5124012;28;20131;-39
2021/03/30 07:18:18;;;;;;;1.80;1.40;;;16.00;63.00;;;;;;5123732;28;20080;-39
2021/03/30 07:20:45;;;;;;;1.60;1.50;;;16.00;62.90;;;;;;5107062;28;20027;-39
2021/03/30 07:23:20;;;;;;;1.83;1.70;;;16.00;62.90;;;;;;5105647;28;20079;-39
2021/03/30 07:26:00;;;;;;;1.52;1.42;;;16.00;62.80;;;;;;5123796;28;20023;-39
2021/03/30 07:28:31;;;;;;;1.92;1.50;;;15.90;62.80;;;;;;5107069;28;20059;-39
2021/03/30 07:31:08;;;;;;;2.22;1.70;;;16.00;62.90;;;;;;5104715;28;20051;-38
2021/03/30 07:34:06;;;;;;;2.15;1.77;;;16.00;62.80;;;;;;5118736;28;20040;-38
2021/03/30 07:36:43;;;;;;;2.23;1.63;;;15.90;62.80;;;;;;5133536;27;20464;-38
2021/03/30 07:39:09;;;;;;;2.90;1.67;;;15.90;62.90;;;;;;5105259;28;20056;-39
2021/03/30 07:41:37;;;;;;;2.33;1.75;;;15.90;63.00;;;;;;5105383;28;20019;-38
2021/03/30 07:44:03;;;;;;;;;;;15.90;63.00;;;;;;5089257;28;20700;-39
2021/03/30 07:46:29;;;;;;;1.75;1.50;;;15.90;62.90;;;;;;5123432;28;19918;-39
2021/03/30 07:48:56;;;;;;;2.25;1.50;;;15.80;63.00;;;;;;5104968;28;20058;-39
2021/03/30 07:51:24;;;;;;;2.92;1.77;;;15.80;63.00;;;;;;5088181;28;20062;-39
2021/03/30 07:53:55;;;;;;;2.08;1.90;;;15.80;63.10;;;;;;5105032;28;20070;-39
2021/03/30 07:56:24;;;;;;;2.22;1.50;;;15.80;63.00;;;;;;5105577;28;20020;-39
2021/03/30 07:58:50;;;;;;;2.00;1.63;;;15.80;63.10;;;;;;5123219;28;20023;-39
2021/03/30 08:01:18;;;;;;;2.33;1.92;;;15.80;63.00;;;;;;5126967;27;20031;-39
2021/03/30 08:03:45;;;;;;;1.60;1.50;;;15.80;63.10;;;;;;5125652;28;20054;-38
2021/03/30 08:06:27;;;;;;;1.80;1.65;;;15.70;63.00;;;;;;5109423;28;20019;-39
2021/03/30 08:08:58;;;;;;;2.28;1.83;;;15.70;63.20;;;;;;5122860;28;20051;-38
2021/03/30 08:11:46;;;;;;;2.28;1.60;;;15.70;63.90;;;;;;5123112;28;20135;-38
2021/03/30 08:14:18;;;;;;;3.45;1.77;;;15.70;63.10;;;;;;5122925;28;20017;-38
2021/03/30 08:16:49;;;;;;;2.65;1.80;;;15.70;63.20;;;;;;5123242;28;20118;-38
2021/03/30 08:19:15;;;;;;;2.28;1.80;;;15.70;63.10;;;;;;5122834;28;20108;-38
2021/03/30 08:22:11;;;;;;;1.45;1.35;;;15.70;63.40;;;;;;5123172;28;20020;-38
2021/03/30 08:24:46;;;;;;;2.67;1.48;;;15.70;63.30;;;;;;5019716;28;20042;-39
2021/03/30 08:27:31;;;;;;;3.97;2.35;;;15.60;63.30;;;;;;5019953;28;20026;-38
2021/03/30 08:29:59;;;;;;;2.15;1.92;;;15.60;63.30;;;;;;5019850;28;20042;-39
2021/03/30 08:32:29;;;;;;;2.45;1.83;;;15.60;63.40;;;;;;5037046;28;20046;-38
2021/03/30 08:34:56;;;;;;;2.22;2.00;;;15.60;63.40;;;;;;5043571;28;20038;-38
2021/03/30 08:37:23;;;;;;;2.20;2.00;;;15.60;63.40;;;;;;5043678;28;20509;-38
2021/03/30 08:39:49;;;;;;;2.30;2.00;;;15.60;63.50;;;;;;5046246;28;20091;-39
2021/03/30 08:42:16;;;;;;;2.33;1.70;;;15.60;63.40;;;;;;5043669;28;20036;-38
2021/03/30 08:44:58;;;;;;;2.15;1.83;;;15.60;63.60;;;;;;5043786;28;20025;-38
2021/03/30 08:47:46;;;;;;;1.90;1.67;;;15.60;63.30;;;;;;5043559;28;20090;-38
2021/03/30 08:50:27;;;;;;;1.73;1.63;;;15.60;63.30;;;;;;5043217;28;20060;-38
2021/03/30 08:52:54;;;;;;;2.00;1.63;;;15.50;63.30;;;;;;5043299;28;20891;-38
2021/03/30 08:55:31;;;;;;;2.03;1.60;;;15.50;63.40;;;;;;5043595;28;20132;-38
2021/03/30 08:58:00;;;;;;;2.37;1.63;;;15.50;63.50;;;;;;5044550;28;20033;-39
2021/03/30 09:00:27;;;;;;;2.72;2.10;;;15.50;63.80;;;;;;5064771;28;20264;-38
2021/03/30 09:03:05;;;;;;;3.45;1.80;;;15.50;63.60;;;;;;5144119;27;20123;-38
2021/03/30 09:05:41;;;;;;;2.35;1.95;;;15.50;63.50;;;;;;5136650;27;20027;-39
2021/03/30 09:08:07;;;;;;;2.28;1.98;;;15.40;63.50;;;;;;5126627;28;20136;-38
2021/03/30 09:10:34;;;;;;;1.88;1.67;;;15.40;63.60;;;;;;5108196;28;20088;-38
2021/03/30 09:13:10;;;;;;;2.55;1.80;;;15.40;63.70;;;;;;5126441;28;20055;-38
2021/03/30 09:15:36;;;;;;;2.95;2.13;;;15.40;63.70;;;;;;5125888;28;20024;-38
2021/03/30 09:18:02;;;;;;;2.80;1.77;;;15.40;63.70;;;;;;5126635;28;20028;-38
2021/03/30 09:20:30;;;;;;;3.05;1.80;;;15.40;63.70;;;;;;5125967;28;20030;-38
2021/03/30 09:23:00;;;;;;;2.92;2.20;;;15.30;63.70;;;;;;5116646;28;20755;-38
2021/03/30 09:25:39;;;;;;;2.83;1.70;;;15.30;63.60;;;;;;5120971;28;20037;-38
2021/03/30 09:28:05;;;;;;;1.92;1.55;;;15.30;63.80;;;;;;5105769;28;20047;-39
2021/03/30 09:30:31;;;;;;;2.28;1.90;;;15.30;63.70;;;;;;5105410;28;20074;-38
2021/03/30 09:32:57;;;;;;;1.60;1.50;;;15.30;63.70;;;;;;5121114;28;20585;-38
2021/03/30 09:35:27;;;;;;;2.00;1.80;;;15.30;63.80;;;;;;5114905;28;20063;-38
2021/03/30 09:38:02;;;;;;;2.45;1.90;;;15.30;63.90;;;;;;5126119;28;20024;-38
2021/03/30 09:40:36;;;;;;;3.53;2.10;;;15.30;63.80;;;;;;5125862;28;20447;-38
2021/03/30 09:43:05;;;;;;;1.80;1.70;;;15.30;63.80;;;;;;5125080;28;20015;-38
2021/03/30 09:45:32;;;;;;;2.20;2.00;;;15.30;63.80;;;;;;5122092;27;20058;-38
2021/03/30 09:48:00;;;;;;;1.92;1.73;;;15.30;63.80;;;;;;5146303;27;20031;-38
2021/03/30 09:50:26;;;;;;;;;;;15.30;63.90;;;;;;5128177;27;20040;-38
2021/03/30 09:52:52;;;;;;;2.17;1.52;;;15.20;63.80;;;;;;5137310;27;19919;-38
2021/03/30 09:55:41;;;;;;;1.98;1.70;;;15.20;63.90;;;;;;5125743;28;20109;-40
2021/03/30 09:58:11;;;;;;;2.47;1.85;;;15.20;63.90;;;;;;5125654;28;20035;-38
2021/03/30 10:00:39;;;;;;;2.35;1.90;;;15.20;64.00;;;;;;5125503;28;20024;-38
2021/03/30 10:03:06;;;;;;;2.35;1.73;;;15.20;64.00;;;;;;5144445;27;20023;-38
2021/03/30 10:05:33;;;;;;;2.03;1.65;;;15.10;64.00;;;;;;5117324;28;20024;-38
2021/03/30 10:07:59;;;;;;;;;;;15.10;64.00;;;;;;5107684;28;20107;-38
2021/03/30 10:10:33;;;;;;;1.67;1.58;;;15.10;64.10;;;;;;5125118;28;19911;-38
2021/03/30 10:13:05;;;;;;;3.22;1.73;;;15.10;64.10;;;;;;5106909;28;20088;-38
2021/03/30 10:15:36;;;;;;;2.60;2.03;;;15.10;64.20;;;;;;5125271;28;20016;-38
2021/03/30 10:18:04;;;;;;;2.22;1.90;;;15.10;64.20;;;;;;5125253;28;20023;-41
2021/03/30 10:20:31;;;;;;;2.08;1.73;;;15.10;64.20;;;;;;5124876;28;20024;-38
2021/03/30 10:22:57;;;;;;;2.17;1.90;;;15.10;64.20;;;;;;5097118;28;20030;-38
2021/03/30 10:25:28;;;;;;;1.90;1.63;;;15.10;64.20;;;;;;5104885;28;20083;-38
2021/03/30 10:27:59;;;;;;;2.35;1.80;;;15.10;64.20;;;;;;5120445;28;20028;-38
2021/03/30 10:30:39;;;;;;;2.58;1.95;;;15.10;64.10;;;;;;5104376;28;20024;-38
2021/03/30 10:33:08;;;;;;;2.20;1.55;;;15.00;64.10;;;;;;5104494;28;20046;-38
2021/03/30 10:35:34;;;;;;;1.73;1.63;;;15.10;64.20;;;;;;5124544;27;20028;-38
2021/03/30 10:38:01;;;;;;;2.30;1.88;;;15.00;64.20;;;;;;5124741;28;20035;-38
2021/03/30 10:40:40;;;;;;;2.50;1.70;;;15.00;64.20;;;;;;5124734;27;20027;-38
2021/03/30 10:43:19;;;;;;;1.98;1.67;;;15.00;64.30;;;;;;5124817;28;20032;-38
2021/03/30 10:45:45;;;;;;;1.70;1.60;;;15.00;64.20;;;;;;5124622;28;20632;-38
2021/03/30 10:48:12;;;;;;;2.13;1.80;;;15.00;64.20;;;;;;5124793;28;20040;-38
2021/03/30 10:50:38;;;;;;;3.25;2.28;;;15.00;64.20;;;;;;5127364;27;20087;-38
2021/03/30 10:53:05;;;;;;;2.53;1.77;;;15.00;64.20;;;;;;5134180;27;20093;-37
2021/03/30 10:55:32;;;;;;;1.88;1.60;;;15.00;64.30;;;;;;5106560;28;20049;-38
2021/03/30 10:57:58;;;;;;;2.22;1.73;;;15.00;64.40;;;;;;5124678;28;20135;-38
2021/03/30 11:00:25;;;;;;;2.30;1.77;;;14.90;64.40;;;;;;5105764;28;20024;-38
2021/03/30 11:02:51;;;;;;;2.00;1.80;;;14.90;64.40;;;;;;5141105;27;20023;-38
2021/03/30 11:05:17;;;;;;;1.77;1.65;;;14.90;64.40;;;;;;5136468;27;20039;-38
2021/03/30 11:07:43;;;;;;;2.20;1.90;;;14.90;64.40;;;;;;5123934;28;20036;-38
2021/03/30 11:10:11;;;;;;;2.13;1.52;;;14.90;64.40;;;;;;5106102;28;20028;-38
2021/03/30 11:12:38;;;;;;;;;;;14.90;64.40;;;;;;5124470;28;20043;-38
2021/03/30 11:15:05;;;;;;;3.25;1.75;;;14.90;64.50;;;;;;5124184;28;19914;-38
2021/03/30 11:17:31;;;;;;;1.75;1.60;;;14.80;64.50;;;;;;5124044;28;20019;-38
2021/03/30 11:19:57;;;;;;;2.17;1.70;;;14.80;64.60;;;;;;5123905;28;20091;-38
2021/03/30 11:22:24;;;;;;;2.00;1.52;;;14.80;64.70;;;;;;5123579;28;20035;-38
2021/03/30 11:24:55;;;;;;;1.80;1.55;;;14.80;64.60;;;;;;5124107;28;20058;-38
2021/03/30 11:27:21;;;;;;;1.58;1.48;;;14.80;64.70;;;;;;5124072;28;20024;-38
2021/03/30 11:30:02;;;;;;;1.67;1.58;;;14.80;64.70;;;;;;5124078;28;20058;-38
2021/03/30 11:32:36;;;;;;;1.90;1.58;;;14.80;64.60;;;;;;5110017;28;20051;-38
2021/03/30 11:35:09;;;;;;;1.85;1.75;;;14.80;64.70;;;;;;5115558;27;20023;-38
2021/03/30 11:40:08;;;;;;;2.08;1.88;;;14.80;64.90;;;;;;5143921;27;20019;-38
2021/03/30 11:42:34;;;;;;;1.48;1.15;;;14.80;64.70;;;;;;5103004;28;20023;-37
2021/03/30 11:45:00;;;;;;;1.63;1.48;;;14.80;64.70;;;;;;5103200;28;20083;-37
2021/03/30 11:47:26;;;;;;;2.17;1.83;;;14.80;64.80;;;;;;5103143;28;20095;-38
2021/03/30 11:49:53;;;;;;;2.80;1.60;;;14.80;64.80;;;;;;5102945;28;20028;-38
2021/03/30 11:52:19;;;;;;;1.98;1.73;;;14.80;64.60;;;;;;5106912;28;20442;-37
2021/03/30 11:54:45;;;;;;;2.05;1.70;;;14.80;64.70;;;;;;5123259;28;20023;-37
2021/03/30 11:57:11;;;;;;;2.92;1.88;;;14.70;64.70;;;;;;5123284;28;20099;-37
2021/03/30 11:59:38;;;;;;;2.70;1.80;;;14.80;64.70;;;;;;5123238;28;20039;-38
2021/03/30 12:02:04;;;;;;;1.70;1.60;;;14.70;64.70;;;;;;5113025;28;20100;-37
2021/03/30 12:04:30;;;;;;;2.13;1.50;;;14.70;64.70;;;;;;5106049;27;20020;-37
2021/03/30 12:06:57;;;;;;;3.50;1.90;;;14.70;64.70;;;;;;5143417;27;20030;-37
2021/03/30 12:09:23;;;;;;;1.95;1.63;;;14.70;64.90;;;;;;5143728;27;20139;-37
2021/03/30 12:11:49;;;;;;;2.00;1.80;;;14.70;64.90;;;;;;5143645;27;20046;-37
2021/03/30 12:14:16;;;;;;;1.70;1.60;;;14.70;64.80;;;;;;5143575;27;20034;-37
2021/03/30 12:16:47;;;;;;;1.92;1.65;;;14.70;64.90;;;;;;5143608;27;20110;-38
2021/03/30 12:19:17;;;;;;;2.00;1.80;;;14.70;64.80;;;;;;5143643;28;20027;-38
2021/03/30 12:21:52;;;;;;;2.60;1.60;;;14.70;64.80;;;;;;5143421;28;20027;-37
2021/03/30 12:24:18;;;;;;;1.58;1.48;;;14.60;64.80;;;;;;5102408;28;20025;-37
2021/03/30 12:26:44;;;;;;;1.80;1.60;;;14.60;64.90;;;;;;5102652;28;20069;-38
2021/03/30 12:29:10;;;;;;;1.77;1.60;;;14.60;65.00;;;;;;5113016;28;20049;-37
2021/03/30 12:31:36;;;;;;;2.63;1.80;;;14.60;65.00;;;;;;5129045;28;20035;-38
2021/03/30 12:34:03;;;;;;;2.78;1.83;;;14.60;65.00;;;;;;5139868;28;20027;-37
2021/03/30 12:36:29;;;;;;;1.85;1.55;;;14.60;64.90;;;;;;5106539;28;20032;-37
2021/03/30 12:38:56;;;;;;;1.57;1.10;;;14.60;64.90;;;;;;5123100;28;20101;-38
2021/03/30 12:41:22;;;;;;;2.07;1.87;;;14.60;64.90;;;;;;5122774;28;20035;-37
2021/03/30 12:43:48;;;;;;;1.47;1.27;;;14.60;65.00;;;;;;5122933;28;20117;-38
2021/03/30 12:46:14;;;;;;;1.70;1.60;;;14.60;64.90;;;;;;5122732;28;20256;-38
2021/03/30 12:48:41;;;;;;;2.00;1.67;;;14.60;64.90;;;;;;5125595;28;20034;-37
2021/03/30 12:51:07;;;;;;;2.00;1.80;;;14.60;64.80;;;;;;5122715;28;20043;-37
2021/03/30 12:53:34;;;;;;;2.08;1.75;;;14.60;64.80;;;;;;5122828;28;20095;-37
2021/03/30 12:56:00;;;;;;;1.92;1.50;;;14.60;64.80;;;;;;5122664;28;20024;-37
2021/03/30 12:58:26;;;;;;;2.03;1.63;;;14.60;64.90;;;;;;5122839;28;20039;-37
2021/03/30 13:00:52;;;;;;;1.88;1.60;;;14.60;64.90;;;;;;5122685;28;20142;-37
2021/03/30 13:03:19;;;;;;;1.73;1.63;;;14.60;64.90;;;;;;5143402;28;20376;-37